Holcut, Mississippi
Current Conditions -  °F | °C
As of 9:15 PM on Thursday 27 Nov 2014 (Local Time) from KCRX Reporting Station
Clear Clear  
Wind Chill: 32°   Ceiling: Unl
Heat Index: 32°   Visibility: NA
Dew Point: 25°   Wind: 0mph
Humidity: 75%   Direction: NA
Pressure: 30.48"   Gusts: NA
Location:  34.8106°N, 88.1999°W
Report Text: KCRX 280315Z AUTO 00000KT CLR M00/M04 A3048 RMK AO2
Loading
Personal Weather Stations






























Interactive Weather Map New forecast layout! Learn more

10-Day Weather Forecast

Advertisements
Track Severe Weather on mobile